Champion, NE (69023)

10:34 AM MDT on August 04, 2015 (GMT -0600)
Imperial Municipal | | Change Station
CLOSE
Current Station
Airport
Location: Imperial,
Elevation: 3274 ft
Nearby Weather Stations

Elev 3274 ft 40.51 °N, 101.62 °W | Updated 12 minutes ago

Mostly Cloudy
Mostly Cloudy
75 °F
Feels Like 75 °F
N
14
Wind Variable Wind from ESE

Today
High -- | Low -- °F
--% Chance of Precip.
Yesterday
High -- | Low -- °F
Precip. -- in
5:46 AM 7:58 PM
Waning Gibbous, 76% visible
Pressure 29.96 in
Visibility 10.0 miles
Clouds Mostly Cloudy 1600 ft
Overcast 7500 ft
Dew Point 65 °F
Humidity 71%
Rainfall 0.00 in
Snow Depth Not available.
UV 2 out of 12
Pollen 7.90 out of 12
Air Quality Not available.
Flu Activity Not available.
SPECI KIML 041622Z AUTO 12012KT 10SM BKN016 OVC075 24/18 A2996 RMK AO2 LTG DSNT N-SE T02390183

More Conditions Fewer Conditions

Pressure 29.96 in
Visibility 10.0 miles
Clouds Mostly Cloudy 1600 ft
Overcast 7500 ft
Dew Point 65 °F
Humidity 71%
Rainfall 0.00 in
Snow Depth Not available.
UV 2 out of 12
Pollen 7.90 out of 12
Air Quality Not available.
Flu Activity Not available.
SPECI KIML 041622Z AUTO 12012KT 10SM BKN016 OVC075 24/18 A2996 RMK AO2 LTG DSNT N-SE T02390183

More Conditions Fewer Conditions

Nowcast | as of 9:55 am CDT on August 4, 2015

Scattered thunderstorms are expected to continue developing over southwest Nebraska and into the sandhills through noon CDT. A few storms may become strong with heavy rain...small hail and wind gusts to 40 mph through the morning hours and may affect portions of the Interstate 80 corridor from Brady to Ogallala...and Highway 83 from Curtis to Stapleton. As the day progresses...storm intensity is expected to increase and there is a slight chance for severe thunderstorms across portions of southwest Nebraska into the afternoon hours.

×

10-Day Weather Forecast

×

Almanac

Astronomy

Aug. 04, 2015 Rise Set
Actual Time
Civil Twilight
Nautical Twilight
Astronomical Twilight
Moon
Length of Visible Light
Length of Day
Tomorrow will be .
, % of the Moon is Illuminated

Today's Extremes

State Highs State Lows

Community

WunderPhotos

Upload Photos

1,843,919 photos uploaded!

WunderBlogs® & News

Nearby

Air Quality

  Air Quality AQ Index Pollutant
Not available.

Snow Depth

Station Depth Elevation

Earthquake Activity

City Distance Mag. Time & Date
Minimum magnitude displayed is 2.5.

Coastal Water Temperatures

Place Temperature

Stations

Nearby Weather Stations

Station Location Temp. Windchill Dew Point Humidity Wind Precip. Elev Updated Type